createdAt,value
2022-10-30T00:01:14.005Z,24.70
2022-10-30T00:11:19.282Z,24.66
2022-10-30T00:21:24.828Z,24.66
2022-10-30T00:31:30.404Z,24.61
2022-10-30T00:41:35.681Z,24.61
2022-10-30T00:53:01.266Z,24.63
2022-10-30T01:03:06.132Z,24.62
2022-10-30T01:13:11.534Z,24.64
2022-10-30T01:23:17.011Z,24.60
2022-10-30T01:33:22.405Z,24.62
2022-10-30T01:43:27.542Z,24.57
2022-10-30T01:53:32.927Z,24.61
2022-10-30T02:03:38.292Z,24.60
2022-10-30T02:13:43.866Z,24.57
2022-10-30T02:23:49.778Z,24.58
2022-10-30T02:33:55.252Z,24.57
2022-10-30T02:44:00.840Z,24.58
2022-10-30T02:54:06.716Z,24.58
2022-10-30T03:04:11.756Z,24.57
2022-10-30T03:14:16.718Z,24.58
2022-10-30T03:24:21.948Z,24.55
2022-10-30T03:34:27.323Z,24.54
2022-10-30T03:44:32.502Z,24.54
2022-10-30T03:54:37.595Z,24.52
2022-10-30T04:04:43.106Z,24.54
2022-10-30T04:14:48.988Z,24.52
2022-10-30T04:24:54.346Z,24.56
2022-10-30T04:34:59.847Z,24.53
2022-10-30T04:45:05.258Z,24.53
2022-10-30T04:55:10.793Z,24.54
2022-10-30T05:05:16.059Z,24.52
2022-10-30T05:15:21.441Z,24.52
2022-10-30T05:25:26.388Z,24.55
2022-10-30T05:35:31.553Z,24.55
2022-10-30T05:45:36.859Z,24.57
2022-10-30T05:55:42.364Z,24.56
2022-10-30T06:05:47.571Z,24.54
2022-10-30T06:15:52.983Z,24.56
2022-10-30T06:25:58.058Z,24.54
2022-10-30T06:36:05.105Z,24.53
2022-10-30T06:46:10.311Z,24.55
2022-10-30T06:56:15.641Z,24.57
2022-10-30T07:06:20.891Z,24.63
2022-10-30T07:16:26.054Z,24.68
2022-10-30T07:26:31.510Z,24.56
2022-10-30T07:36:37.302Z,24.51
2022-10-30T07:46:42.350Z,24.52
2022-10-30T07:56:47.383Z,24.43
2022-10-30T08:06:52.471Z,24.43
2022-10-30T08:16:57.661Z,24.45
2022-10-30T08:27:02.860Z,24.42
2022-10-30T08:38:27.630Z,24.42
2022-10-30T08:48:31.579Z,24.39
2022-10-30T08:58:36.476Z,24.35
2022-10-30T09:08:41.859Z,24.35
2022-10-30T09:18:47.020Z,24.34
2022-10-30T09:30:11.601Z,24.32
2022-10-30T09:40:15.949Z,24.40
2022-10-30T09:50:21.120Z,24.31
2022-10-30T10:00:26.232Z,24.26
2022-10-30T10:10:31.386Z,24.28
2022-10-30T10:20:36.654Z,24.29
2022-10-30T10:30:41.767Z,24.27
2022-10-30T10:40:47.320Z,24.26
2022-10-30T10:50:52.669Z,24.27
2022-10-30T11:02:17.820Z,24.27
2022-10-30T11:12:22.930Z,24.28
2022-10-30T11:22:28.158Z,24.27
2022-10-30T11:32:33.797Z,24.29
2022-10-30T11:42:39.409Z,24.35
2022-10-30T11:52:44.515Z,24.34
2022-10-30T12:02:49.663Z,24.37
2022-10-30T12:12:55.200Z,24.44
2022-10-30T12:23:00.975Z,24.43
2022-10-30T12:33:06.512Z,24.43
2022-10-30T12:43:11.808Z,24.37
2022-10-30T12:53:17.091Z,24.34
2022-10-30T13:03:22.340Z,24.32
2022-10-30T13:13:27.955Z,24.28
2022-10-30T13:23:33.022Z,24.37
2022-10-30T13:33:38.634Z,24.31
2022-10-30T13:43:44.057Z,24.29
2022-10-30T13:53:49.378Z,24.26
2022-10-30T14:03:54.601Z,24.26
2022-10-30T14:14:00.166Z,24.29
2022-10-30T14:24:05.259Z,24.25
2022-10-30T14:34:10.699Z,24.27
2022-10-30T14:44:16.160Z,24.26
2022-10-30T14:54:21.317Z,24.25
2022-10-30T15:04:26.756Z,24.25
2022-10-30T15:14:48.691Z,24.23
2022-10-30T15:24:42.642Z,24.27
2022-10-30T15:34:47.878Z,24.28
2022-10-30T15:44:53.266Z,24.26
2022-10-30T15:54:58.401Z,24.24
2022-10-30T16:05:03.689Z,24.26
2022-10-30T16:16:28.448Z,24.29
2022-10-30T16:26:32.625Z,24.22
2022-10-30T16:36:38.110Z,24.24
2022-10-30T16:48:08.429Z,24.28
2022-10-30T16:58:12.271Z,24.21
2022-10-30T17:08:17.282Z,24.23
2022-10-30T17:18:22.541Z,24.24
2022-10-30T17:28:27.963Z,24.24
2022-10-30T17:38:33.236Z,24.24
2022-10-30T17:48:38.498Z,24.26
2022-10-30T17:58:44.061Z,24.27
2022-10-30T18:08:50.933Z,24.41
2022-10-30T18:18:56.569Z,24.51
2022-10-30T18:29:01.867Z,24.49
2022-10-30T18:39:06.892Z,24.56
2022-10-30T18:49:12.385Z,24.71
2022-10-30T18:59:17.707Z,24.72
2022-10-30T19:09:22.753Z,24.80
2022-10-30T19:21:05.126Z,24.68
2022-10-30T19:32:16.384Z,24.78
2022-10-30T19:46:18.808Z,24.85
2022-10-30T19:56:22.612Z,24.84
2022-10-30T20:06:27.656Z,24.84
2022-10-30T20:16:33.212Z,24.88
2022-10-30T20:26:38.546Z,24.89
2022-10-30T20:38:03.372Z,24.92
2022-10-30T20:49:27.421Z,24.94
2022-10-30T20:59:32.003Z,25.00
2022-10-30T21:09:37.324Z,25.11
2022-10-30T21:19:42.298Z,25.02
2022-10-30T21:29:47.567Z,25.06
2022-10-30T21:39:52.814Z,25.08
2022-10-30T21:49:57.734Z,25.05
2022-10-30T22:00:05.812Z,25.06
2022-10-30T22:10:12.757Z,25.01
2022-10-30T22:20:17.832Z,25.00
2022-10-30T22:30:22.554Z,24.98
2022-10-30T22:40:28.471Z,24.93
2022-10-30T22:50:34.261Z,24.87
2022-10-30T23:00:39.619Z,24.86
2022-10-30T23:10:45.170Z,24.86
2022-10-30T23:20:50.557Z,24.85
2022-10-30T23:30:55.695Z,24.81
2022-10-30T23:42:20.615Z,24.77
2022-10-30T23:52:24.912Z,24.76
